createdAt,value
2018-03-29T00:01:11.089Z,5.10
2018-03-29T00:03:38.970Z,5.20
2018-03-29T00:06:07.595Z,5.20
2018-03-29T00:08:35.093Z,5.20
2018-03-29T00:11:03.097Z,5.20
2018-03-29T00:13:30.621Z,5.30
2018-03-29T00:15:58.310Z,5.30
2018-03-29T00:18:25.784Z,5.40
2018-03-29T00:20:53.352Z,5.40
2018-03-29T00:23:21.174Z,5.40
2018-03-29T00:25:48.725Z,5.40
2018-03-29T00:28:16.496Z,5.50
2018-03-29T00:30:43.977Z,5.50
2018-03-29T00:33:13.018Z,5.50
2018-03-29T00:35:40.937Z,5.50
2018-03-29T00:38:08.463Z,5.50
2018-03-29T00:40:36.783Z,5.40
2018-03-29T00:43:05.166Z,5.30
2018-03-29T00:45:32.923Z,5.30
2018-03-29T00:48:00.492Z,5.30
2018-03-29T00:50:28.061Z,5.30
2018-03-29T00:52:55.528Z,5.40
2018-03-29T00:55:23.125Z,5.40
2018-03-29T00:57:51.156Z,5.40
2018-03-29T01:00:19.218Z,5.40
2018-03-29T01:02:47.466Z,5.30
2018-03-29T01:05:16.050Z,5.30
2018-03-29T01:07:44.404Z,5.30
2018-03-29T01:10:11.866Z,5.20
2018-03-29T01:12:39.697Z,5.30
2018-03-29T01:15:07.266Z,5.30
2018-03-29T01:17:35.501Z,5.30
2018-03-29T01:20:02.996Z,5.30
2018-03-29T01:22:31.888Z,5.40
2018-03-29T01:25:01.325Z,5.50
2018-03-29T01:27:28.925Z,5.40
2018-03-29T01:29:56.609Z,5.40
2018-03-29T01:32:36.933Z,5.50
2018-03-29T01:35:05.228Z,5.50
2018-03-29T01:37:32.833Z,5.50
2018-03-29T01:40:00.783Z,5.50
2018-03-29T01:42:29.092Z,5.50
2018-03-29T01:44:58.030Z,5.50
2018-03-29T01:47:27.081Z,5.50
2018-03-29T01:49:55.749Z,5.40
2018-03-29T01:52:23.992Z,5.40
2018-03-29T01:54:51.537Z,5.40
2018-03-29T01:57:21.023Z,5.40
2018-03-29T01:59:48.509Z,5.40
2018-03-29T02:02:16.270Z,5.50
2018-03-29T02:04:44.191Z,5.50
2018-03-29T02:07:12.701Z,5.50
2018-03-29T02:09:40.545Z,5.50
2018-03-29T02:12:09.099Z,5.50
2018-03-29T02:14:36.614Z,5.50
2018-03-29T02:17:04.078Z,5.50
2018-03-29T02:19:31.549Z,5.40
2018-03-29T02:21:59.901Z,5.40
2018-03-29T02:24:27.576Z,5.40
2018-03-29T02:26:55.871Z,5.40
2018-03-29T02:29:23.345Z,5.40
2018-03-29T02:31:51.622Z,5.30
2018-03-29T02:34:19.111Z,5.30
2018-03-29T02:36:47.035Z,5.30
2018-03-29T02:39:15.092Z,5.30
2018-03-29T02:41:42.557Z,5.30
2018-03-29T02:44:10.303Z,5.20
2018-03-29T02:46:37.775Z,5.10
2018-03-29T02:49:05.269Z,5.10
2018-03-29T02:51:33.881Z,5.10
2018-03-29T02:54:02.097Z,5.10
2018-03-29T02:56:29.613Z,5.10
2018-03-29T02:58:57.647Z,5.10
2018-03-29T03:01:26.305Z,5.10
2018-03-29T03:03:53.779Z,5.10
2018-03-29T03:06:21.752Z,5.10
2018-03-29T03:08:49.218Z,5.20
2018-03-29T03:11:17.947Z,5.20
2018-03-29T03:13:45.403Z,5.20
2018-03-29T03:16:12.896Z,5.20
2018-03-29T03:18:40.373Z,5.20
2018-03-29T03:21:08.604Z,5.20
2018-03-29T03:23:36.069Z,5.30
2018-03-29T03:26:03.605Z,5.30
2018-03-29T03:28:31.072Z,5.30
2018-03-29T03:30:58.592Z,5.20
2018-03-29T03:33:26.733Z,5.30
2018-03-29T03:35:54.658Z,5.30
2018-03-29T03:38:22.113Z,5.30
2018-03-29T03:40:50.101Z,5.30
2018-03-29T03:43:18.044Z,5.30
2018-03-29T03:45:45.529Z,5.30
2018-03-29T03:48:12.965Z,5.30
2018-03-29T03:50:40.450Z,5.30
2018-03-29T03:53:07.913Z,5.30
2018-03-29T03:55:35.385Z,5.30
2018-03-29T03:58:04.222Z,5.30
2018-03-29T04:00:32.229Z,5.30
2018-03-29T04:02:59.702Z,5.30
2018-03-29T04:05:27.461Z,5.30
2018-03-29T04:07:55.711Z,5.40
2018-03-29T04:10:23.880Z,5.40
2018-03-29T04:12:51.371Z,5.40
2018-03-29T04:15:19.221Z,5.40
2018-03-29T04:17:46.677Z,5.40
2018-03-29T04:20:14.125Z,5.40
2018-03-29T04:22:41.601Z,5.40
2018-03-29T04:25:09.042Z,5.40
2018-03-29T04:27:36.509Z,5.40
2018-03-29T04:30:03.948Z,5.50
2018-03-29T04:32:31.608Z,5.40
2018-03-29T04:34:59.811Z,5.40
2018-03-29T04:37:28.461Z,5.40
2018-03-29T04:39:55.993Z,5.40
2018-03-29T04:42:23.449Z,5.40
2018-03-29T04:44:51.410Z,5.30
2018-03-29T04:47:18.841Z,5.40
2018-03-29T04:49:47.098Z,5.40
2018-03-29T04:52:14.538Z,5.40
2018-03-29T04:54:42.316Z,5.40
2018-03-29T04:57:09.763Z,5.40
2018-03-29T04:59:37.420Z,5.40
2018-03-29T05:02:04.846Z,5.50
2018-03-29T05:04:33.069Z,5.50
2018-03-29T05:07:01.844Z,5.50
2018-03-29T05:09:29.929Z,5.50
2018-03-29T05:11:57.257Z,5.50
2018-03-29T05:14:24.732Z,5.50
2018-03-29T05:16:52.179Z,5.50
2018-03-29T05:19:19.633Z,5.60
2018-03-29T05:21:47.077Z,5.60
2018-03-29T05:24:14.956Z,5.60
2018-03-29T05:26:42.426Z,5.60
2018-03-29T05:29:10.156Z,5.60
2018-03-29T05:31:37.600Z,5.60
2018-03-29T05:34:05.054Z,5.60
2018-03-29T05:36:32.972Z,5.70
2018-03-29T05:39:00.860Z,5.70
2018-03-29T05:41:28.301Z,5.70
2018-03-29T05:43:56.888Z,5.80
2018-03-29T05:46:25.126Z,5.80
2018-03-29T05:48:53.063Z,5.70
2018-03-29T05:51:20.504Z,5.80
2018-03-29T05:53:47.976Z,5.80
2018-03-29T05:56:15.420Z,5.70
2018-03-29T05:58:43.427Z,5.80
2018-03-29T06:01:11.093Z,5.80
2018-03-29T06:03:38.541Z,5.80
2018-03-29T06:06:06.373Z,5.70
2018-03-29T06:08:34.918Z,5.70
2018-03-29T06:11:02.713Z,5.70
2018-03-29T06:13:30.084Z,5.70
2018-03-29T06:16:03.904Z,5.80
2018-03-29T06:18:32.302Z,5.80
2018-03-29T06:20:59.768Z,5.80
2018-03-29T06:23:27.225Z,5.80
2018-03-29T06:25:54.712Z,5.80
2018-03-29T06:28:22.940Z,5.80
2018-03-29T06:30:50.441Z,5.80
2018-03-29T06:33:18.655Z,5.80
2018-03-29T06:35:46.452Z,5.90
2018-03-29T06:38:13.919Z,5.90
2018-03-29T06:40:41.341Z,5.90
2018-03-29T06:43:09.152Z,5.90
2018-03-29T06:45:37.697Z,6.00
2018-03-29T06:48:05.181Z,6.00
2018-03-29T06:50:32.645Z,6.00
2018-03-29T06:53:01.831Z,6.10
2018-03-29T06:55:29.279Z,6.10
2018-03-29T06:57:56.796Z,6.10
2018-03-29T07:00:24.242Z,6.10
2018-03-29T07:02:51.750Z,6.10
2018-03-29T07:05:19.618Z,6.10
2018-03-29T07:07:47.417Z,6.10
2018-03-29T07:10:15.630Z,6.10
2018-03-29T07:12:43.424Z,6.10
2018-03-29T07:15:11.172Z,6.10
2018-03-29T07:17:39.317Z,6.10
2018-03-29T07:20:06.951Z,6.10
2018-03-29T07:22:35.194Z,6.10
2018-03-29T07:25:02.669Z,6.00
2018-03-29T07:27:30.904Z,6.00
2018-03-29T07:29:58.370Z,6.00
2018-03-29T07:32:26.372Z,6.10
2018-03-29T07:34:55.048Z,6.00
2018-03-29T07:37:24.735Z,6.00
2018-03-29T07:39:52.230Z,6.00
2018-03-29T07:42:20.430Z,6.20
2018-03-29T07:44:48.402Z,6.20
2018-03-29T07:47:15.845Z,6.20
2018-03-29T07:49:43.369Z,6.20
2018-03-29T07:52:11.615Z,6.30
2018-03-29T07:54:39.050Z,6.30
2018-03-29T07:57:06.534Z,6.30
2018-03-29T07:59:34.948Z,6.40
2018-03-29T08:02:03.295Z,6.50
2018-03-29T08:04:30.761Z,6.50
2018-03-29T08:06:58.606Z,6.60
2018-03-29T08:09:26.584Z,6.60
2018-03-29T08:11:54.604Z,6.70
2018-03-29T08:14:22.081Z,6.70
2018-03-29T08:16:49.544Z,6.80
2018-03-29T08:19:17.010Z,6.80
2018-03-29T08:21:44.466Z,6.80
2018-03-29T08:24:12.549Z,6.80
2018-03-29T08:26:40.076Z,6.80
2018-03-29T08:29:07.548Z,6.80
2018-03-29T08:31:34.992Z,6.70
2018-03-29T08:34:02.444Z,6.70
2018-03-29T08:36:30.349Z,6.70
2018-03-29T08:38:58.556Z,6.70
2018-03-29T08:41:26.050Z,6.70
2018-03-29T08:43:54.657Z,6.70
2018-03-29T08:46:22.098Z,6.70
2018-03-29T08:48:49.643Z,6.70
2018-03-29T08:51:17.095Z,6.80
2018-03-29T08:53:44.596Z,6.80
2018-03-29T08:56:12.110Z,6.90
2018-03-29T08:58:39.590Z,6.90
2018-03-29T09:01:07.028Z,6.90
2018-03-29T09:03:35.033Z,7.00
2018-03-29T09:06:03.710Z,7.00
2018-03-29T09:08:31.791Z,7.10
2018-03-29T09:10:59.652Z,7.10
2018-03-29T09:13:27.729Z,7.10
2018-03-29T09:15:55.242Z,7.20
2018-03-29T09:18:22.803Z,7.20
2018-03-29T09:20:50.267Z,7.20
2018-03-29T09:23:17.719Z,7.20
2018-03-29T09:25:45.187Z,7.20
2018-03-29T09:35:00.136Z,7.10
2018-03-29T09:37:27.928Z,7.10
2018-03-29T09:39:56.357Z,7.10
2018-03-29T09:42:23.804Z,7.10
2018-03-29T09:44:51.894Z,7.10
2018-03-29T09:47:19.338Z,7.10
2018-03-29T09:49:46.816Z,7.20
2018-03-29T09:52:14.321Z,7.30
2018-03-29T09:54:41.797Z,7.40
2018-03-29T09:57:09.277Z,7.40
2018-03-29T09:59:36.794Z,7.50
2018-03-29T10:02:10.017Z,7.50
2018-03-29T10:04:37.880Z,7.50
2018-03-29T10:07:11.307Z,7.60
2018-03-29T10:09:39.973Z,7.80
2018-03-29T10:12:07.840Z,7.80
2018-03-29T10:14:35.388Z,7.80
2018-03-29T10:17:02.954Z,7.90
2018-03-29T10:19:30.423Z,7.90
2018-03-29T10:22:00.356Z,7.90
2018-03-29T10:24:28.617Z,8.00
2018-03-29T10:26:57.278Z,8.00
2018-03-29T10:29:24.729Z,8.00
2018-03-29T10:31:53.662Z,8.10
2018-03-29T10:34:21.868Z,8.20
2018-03-29T10:36:49.886Z,8.20
2018-03-29T10:39:18.101Z,8.30
2018-03-29T10:41:45.605Z,8.30
2018-03-29T10:44:13.472Z,8.30
2018-03-29T10:46:41.392Z,8.30
2018-03-29T10:49:08.836Z,8.30
2018-03-29T10:51:36.743Z,8.30
2018-03-29T10:54:04.229Z,8.30
2018-03-29T10:56:31.688Z,8.30
2018-03-29T10:58:59.148Z,8.20
2018-03-29T11:01:26.607Z,8.20
2018-03-29T11:03:54.077Z,8.20
2018-03-29T11:06:22.887Z,8.20
2018-03-29T11:08:50.899Z,8.20
2018-03-29T11:11:18.814Z,8.20
2018-03-29T11:13:47.048Z,8.40
2018-03-29T11:16:14.498Z,8.40
2018-03-29T11:18:41.972Z,8.50
2018-03-29T11:21:09.478Z,8.50
2018-03-29T11:23:37.102Z,8.60
2018-03-29T11:26:04.550Z,8.70
2018-03-29T11:28:32.057Z,8.90
2018-03-29T11:30:59.496Z,9.00
2018-03-29T11:33:27.106Z,9.30
2018-03-29T11:35:55.068Z,9.40
2018-03-29T11:38:22.580Z,9.50
2018-03-29T11:40:50.014Z,9.70
2018-03-29T11:43:18.826Z,10.20
2018-03-29T11:45:46.874Z,10.20
2018-03-29T11:48:15.141Z,10.40
2018-03-29T11:50:42.643Z,10.40
2018-03-29T11:53:10.203Z,10.40
2018-03-29T11:55:37.762Z,10.20
2018-03-29T11:58:05.206Z,10.00
2018-03-29T12:00:32.916Z,9.90
2018-03-29T12:03:00.356Z,9.80
2018-03-29T12:05:28.141Z,9.80
2018-03-29T12:07:57.094Z,9.70
2018-03-29T12:10:25.014Z,9.70
2018-03-29T12:12:52.466Z,9.90
2018-03-29T12:15:19.943Z,10.20
2018-03-29T12:17:48.157Z,10.80
2018-03-29T12:20:16.402Z,11.00
2018-03-29T12:22:44.615Z,11.30
2018-03-29T12:25:12.321Z,11.30
2018-03-29T12:27:40.547Z,11.90
2018-03-29T12:30:08.333Z,11.90
2018-03-29T12:32:36.413Z,12.00
2018-03-29T12:35:04.383Z,12.10
2018-03-29T12:37:31.841Z,12.10
2018-03-29T12:39:59.623Z,11.90
2018-03-29T12:42:27.864Z,11.80
2018-03-29T12:44:55.563Z,11.80
2018-03-29T12:47:23.076Z,12.00
2018-03-29T12:49:50.537Z,12.20
2018-03-29T12:52:18.094Z,12.40
2018-03-29T12:54:57.326Z,12.60
2018-03-29T12:57:36.980Z,12.80
2018-03-29T13:00:04.443Z,13.00
2018-03-29T13:02:32.857Z,13.10
2018-03-29T13:05:02.181Z,12.90
2018-03-29T13:07:30.060Z,12.90
2018-03-29T13:09:57.810Z,12.70
2018-03-29T13:12:25.665Z,12.40
2018-03-29T13:14:53.107Z,12.10
2018-03-29T13:17:20.584Z,11.80
2018-03-29T13:19:48.048Z,11.70
2018-03-29T13:22:15.620Z,11.50
2018-03-29T13:24:43.084Z,11.40
2018-03-29T13:27:10.591Z,11.20
2018-03-29T13:29:38.309Z,10.90
2018-03-29T13:32:05.764Z,10.70
2018-03-29T13:34:33.214Z,10.20
2018-03-29T13:37:00.885Z,10.00
2018-03-29T13:39:28.333Z,9.70
2018-03-29T13:41:56.015Z,9.50
2018-03-29T13:44:24.011Z,9.50
2018-03-29T13:46:52.249Z,9.50
2018-03-29T13:49:19.687Z,9.50
2018-03-29T13:51:47.166Z,9.70
2018-03-29T13:54:14.664Z,9.90
2018-03-29T13:56:42.108Z,10.00
2018-03-29T13:59:09.617Z,10.20
2018-03-29T14:01:37.141Z,10.40
2018-03-29T14:04:04.618Z,10.60
2018-03-29T14:06:32.469Z,10.70
2018-03-29T14:08:59.979Z,10.90
2018-03-29T14:11:27.801Z,11.00
2018-03-29T14:13:55.282Z,11.10
2018-03-29T14:16:22.724Z,11.00
2018-03-29T14:18:50.648Z,11.00
2018-03-29T14:21:19.097Z,11.00
2018-03-29T14:23:46.725Z,11.00
2018-03-29T14:26:14.262Z,11.00
2018-03-29T14:28:42.076Z,11.00
2018-03-29T14:31:09.535Z,11.00
2018-03-29T14:33:36.978Z,11.00
2018-03-29T14:36:04.930Z,11.00
2018-03-29T14:38:32.387Z,10.90
2018-03-29T14:40:59.863Z,10.90
2018-03-29T14:43:27.716Z,10.90
2018-03-29T14:45:55.270Z,10.90
2018-03-29T14:48:22.713Z,10.80
2018-03-29T14:50:50.528Z,10.80
2018-03-29T14:53:18.046Z,10.70
2018-03-29T14:55:45.613Z,10.60
2018-03-29T14:58:13.164Z,10.60
2018-03-29T15:00:40.777Z,10.40
2018-03-29T15:03:08.225Z,10.20
2018-03-29T15:05:35.985Z,10.00
2018-03-29T15:08:03.875Z,9.60
2018-03-29T15:10:31.722Z,9.40
2018-03-29T15:12:59.169Z,9.30
2018-03-29T15:15:26.652Z,9.30
2018-03-29T15:17:54.864Z,9.20
2018-03-29T15:20:22.344Z,9.20
2018-03-29T15:22:49.788Z,9.10
2018-03-29T15:25:17.269Z,9.10
2018-03-29T15:27:44.905Z,9.10
2018-03-29T15:30:12.342Z,9.00
2018-03-29T15:32:39.898Z,9.10
2018-03-29T15:35:08.289Z,9.10
2018-03-29T15:37:35.746Z,9.10
2018-03-29T15:40:03.306Z,9.10
2018-03-29T15:42:30.897Z,9.10
2018-03-29T15:44:58.881Z,9.20
2018-03-29T15:47:26.344Z,9.20
2018-03-29T15:49:55.210Z,9.50
2018-03-29T15:52:22.839Z,9.50
2018-03-29T15:54:50.294Z,9.60
2018-03-29T15:57:17.868Z,9.80
2018-03-29T15:59:46.032Z,9.90
2018-03-29T16:02:13.540Z,9.90
2018-03-29T16:04:41.592Z,9.90
2018-03-29T16:07:09.529Z,10.00
2018-03-29T16:09:36.982Z,10.10
2018-03-29T16:12:04.769Z,10.20
2018-03-29T16:14:32.237Z,10.30
2018-03-29T16:16:59.676Z,10.40
2018-03-29T16:19:27.344Z,10.50
2018-03-29T16:21:54.796Z,10.60
2018-03-29T16:24:22.273Z,10.60
2018-03-29T16:26:49.720Z,10.70
2018-03-29T16:29:17.220Z,10.70
2018-03-29T16:31:44.835Z,10.70
2018-03-29T16:34:12.334Z,10.80
2018-03-29T16:36:40.984Z,10.90
2018-03-29T16:39:08.461Z,10.90
2018-03-29T16:41:36.692Z,11.10
2018-03-29T16:44:05.217Z,11.10
2018-03-29T16:46:33.438Z,11.30
2018-03-29T16:49:00.949Z,11.30
2018-03-29T16:51:28.418Z,11.30
2018-03-29T16:53:57.120Z,11.20
2018-03-29T16:56:24.555Z,11.20
2018-03-29T16:58:53.070Z,11.20
2018-03-29T17:01:20.505Z,11.10
2018-03-29T17:03:47.950Z,11.10
2018-03-29T17:06:16.771Z,11.10
2018-03-29T17:08:44.223Z,11.00
2018-03-29T17:11:12.130Z,11.10
2018-03-29T17:13:39.579Z,11.10
2018-03-29T17:16:07.040Z,11.20
2018-03-29T17:18:34.490Z,11.20
2018-03-29T17:21:02.048Z,11.20
2018-03-29T17:23:29.532Z,11.20
2018-03-29T17:25:57.884Z,11.20
2018-03-29T17:28:25.472Z,11.40
2018-03-29T17:30:53.198Z,11.20
2018-03-29T17:33:20.647Z,11.10
2018-03-29T17:35:48.709Z,11.00
2018-03-29T17:38:16.164Z,11.00
2018-03-29T17:40:43.885Z,10.80
2018-03-29T17:43:12.117Z,10.60
2018-03-29T17:45:40.224Z,10.60
2018-03-29T17:48:08.175Z,10.50
2018-03-29T17:50:37.015Z,10.40
2018-03-29T17:53:04.470Z,10.30
2018-03-29T17:55:32.558Z,10.30
2018-03-29T17:58:00.021Z,10.20
2018-03-29T18:00:27.615Z,10.10
2018-03-29T18:02:55.080Z,10.00
2018-03-29T18:05:23.303Z,9.90
2018-03-29T18:07:50.791Z,9.90
2018-03-29T18:10:18.264Z,9.80
2018-03-29T18:12:46.127Z,9.70
2018-03-29T18:15:13.571Z,9.60
2018-03-29T18:17:41.108Z,9.60
2018-03-29T18:20:08.572Z,9.50
2018-03-29T18:22:36.029Z,9.50
2018-03-29T18:25:03.494Z,9.40
2018-03-29T18:27:31.157Z,9.40
2018-03-29T18:29:58.690Z,9.30
2018-03-29T18:32:26.148Z,9.30
2018-03-29T18:34:54.882Z,9.30
2018-03-29T18:37:22.647Z,9.20
2018-03-29T18:39:50.115Z,9.10
2018-03-29T18:42:18.341Z,9.10
2018-03-29T18:44:46.239Z,9.10
2018-03-29T18:47:13.734Z,9.00
2018-03-29T18:49:41.169Z,9.00
2018-03-29T18:52:09.539Z,8.90
2018-03-29T18:54:36.986Z,8.90
2018-03-29T18:57:04.432Z,8.90
2018-03-29T18:59:31.920Z,8.90
2018-03-29T19:02:00.144Z,8.70
2018-03-29T19:04:27.666Z,8.70
2018-03-29T19:06:55.685Z,8.70
2018-03-29T19:09:23.166Z,8.60
2018-03-29T19:11:50.976Z,8.60
2018-03-29T19:14:18.476Z,8.50
2018-03-29T19:16:45.991Z,8.40
2018-03-29T19:19:13.493Z,8.40
2018-03-29T19:21:40.952Z,8.30
2018-03-29T19:24:08.473Z,8.30
2018-03-29T19:26:35.925Z,8.20
2018-03-29T19:29:03.422Z,8.20
2018-03-29T19:31:30.882Z,8.20
2018-03-29T19:33:58.673Z,8.20
2018-03-29T19:36:27.314Z,8.10
2018-03-29T19:38:54.789Z,8.10
2018-03-29T19:41:22.260Z,8.00
2018-03-29T19:43:51.118Z,8.00
2018-03-29T19:46:18.582Z,8.00
2018-03-29T19:48:46.042Z,7.90
2018-03-29T19:51:13.586Z,7.90
2018-03-29T19:53:41.030Z,7.80
2018-03-29T19:56:08.505Z,7.80
2018-03-29T19:58:35.975Z,7.80
2018-03-29T20:01:04.237Z,7.80
2018-03-29T20:03:31.717Z,7.70
2018-03-29T20:06:00.269Z,7.60
2018-03-29T20:08:27.726Z,7.60
2018-03-29T20:10:55.511Z,7.60
2018-03-29T20:13:23.484Z,7.50
2018-03-29T20:15:51.737Z,7.40
2018-03-29T20:18:19.260Z,7.40
2018-03-29T20:20:46.724Z,7.40
2018-03-29T20:23:14.205Z,7.30
2018-03-29T20:25:42.198Z,7.30
2018-03-29T20:28:09.677Z,7.20
2018-03-29T20:30:37.944Z,7.20
2018-03-29T20:33:06.189Z,7.10
2018-03-29T20:35:33.954Z,7.10
2018-03-29T20:38:01.464Z,7.10
2018-03-29T20:40:28.932Z,7.00
2018-03-29T20:42:56.690Z,7.10
2018-03-29T20:45:24.549Z,7.00
2018-03-29T20:47:52.265Z,7.00
2018-03-29T20:50:19.725Z,7.00
2018-03-29T20:52:47.340Z,7.00
2018-03-29T20:55:15.003Z,7.00
2018-03-29T20:57:42.540Z,7.00
2018-03-29T21:00:09.993Z,6.90
2018-03-29T21:02:38.257Z,6.90
2018-03-29T21:05:06.839Z,6.90
2018-03-29T21:07:35.254Z,6.90
2018-03-29T21:10:02.741Z,6.90
2018-03-29T21:12:30.619Z,6.90
2018-03-29T21:14:58.790Z,6.80
2018-03-29T21:17:26.994Z,6.80
2018-03-29T21:19:55.225Z,6.90
2018-03-29T21:22:22.749Z,6.80
2018-03-29T21:24:50.267Z,6.80
2018-03-29T21:27:17.825Z,6.80
2018-03-29T21:29:45.560Z,6.80
2018-03-29T21:32:13.106Z,6.80
2018-03-29T21:34:41.213Z,6.80
2018-03-29T21:37:09.106Z,6.80
2018-03-29T21:39:37.336Z,6.70
2018-03-29T21:42:04.810Z,6.70
2018-03-29T21:44:32.729Z,6.60
2018-03-29T21:47:00.153Z,6.70
2018-03-29T21:49:28.607Z,6.60
2018-03-29T21:51:56.068Z,6.60
2018-03-29T21:54:23.567Z,6.60
2018-03-29T21:56:51.036Z,6.60
2018-03-29T21:59:18.490Z,6.50
2018-03-29T22:01:46.296Z,6.40
2018-03-29T22:04:14.183Z,6.40
2018-03-29T22:06:42.676Z,6.30
2018-03-29T22:09:10.876Z,6.30
2018-03-29T22:11:38.511Z,6.30
2018-03-29T22:14:07.160Z,6.20
2018-03-29T22:16:34.715Z,6.20
2018-03-29T22:19:02.158Z,6.20
2018-03-29T22:21:29.650Z,6.20
2018-03-29T22:23:57.242Z,6.10
2018-03-29T22:26:24.905Z,6.10
2018-03-29T22:28:52.296Z,6.10
2018-03-29T22:31:19.968Z,6.10
2018-03-29T22:33:47.465Z,6.00
2018-03-29T22:36:15.296Z,6.00
2018-03-29T22:38:42.981Z,6.00
2018-03-29T22:41:10.444Z,5.90
2018-03-29T22:43:38.276Z,6.00
2018-03-29T22:46:05.750Z,6.00
2018-03-29T22:48:33.200Z,6.00
2018-03-29T22:51:00.649Z,6.00
2018-03-29T22:53:28.148Z,6.00
2018-03-29T22:55:55.673Z,6.00
2018-03-29T22:58:23.143Z,6.00
2018-03-29T23:00:51.590Z,6.00
2018-03-29T23:03:19.057Z,5.90
2018-03-29T23:05:46.882Z,5.90
2018-03-29T23:08:14.364Z,5.90
2018-03-29T23:10:42.411Z,5.90
2018-03-29T23:13:09.878Z,6.00
2018-03-29T23:15:37.656Z,5.90
2018-03-29T23:18:05.103Z,6.00
2018-03-29T23:20:32.577Z,6.00
2018-03-29T23:23:00.326Z,5.90
2018-03-29T23:25:27.782Z,6.00
2018-03-29T23:27:55.270Z,6.00
2018-03-29T23:30:22.736Z,6.00
2018-03-29T23:32:50.189Z,6.00
2018-03-29T23:35:18.387Z,5.90
2018-03-29T23:37:45.861Z,5.90
2018-03-29T23:40:13.344Z,5.90
2018-03-29T23:42:40.784Z,5.90
2018-03-29T23:45:08.815Z,6.00
2018-03-29T23:47:37.021Z,5.90
2018-03-29T23:50:04.585Z,5.90
2018-03-29T23:52:32.284Z,5.90
2018-03-29T23:54:59.942Z,6.00
2018-03-29T23:57:27.460Z,5.90
2018-03-29T23:59:54.917Z,5.90
